CA-0172 weather

CLOSED Jedney Airport
British Columbia, Canada

Public forecast

Using degrees Celsius for public forecast. Weather courtesy of forecast.io.

Closest aviation weather report (METAR) to Jedney Airport

Closest report is Fort St John Airport, 76.3 nm (141.3 km) SE. Retrieved 2019/10/17 09:00 UTC (8 minutes ago):

CYXJ 170900Z 15006KT 15SM OVC095 05/04 A2928 RMK AC8 SLP931 DENSITY ALT 2500FT

Closest aviation forecast (TAF) to Jedney Airport

Closest forecast is Fort St John Airport, 76.3 nm (141.3 km) SE. Retrieved 2019/10/17 07:42 UTC (1 hour ago):

TAF CYXJ 170638Z 1707/1719 12008KT P6SM BKN050 OVC120 TEMPO 1707/1710 P6SM -RA BECMG 1707/1709 VRB03KT FM171200 21008KT P6SM BKN180 FM171500 22010KT P6SM SKC RMK NXT FCST BY 171300Z